Time;durP1;ratioP1;P1;durP2;ratioP2;P2;SDS_P1;SDS_P2;PMS_P1;PMS_P2;Temp;Humidity;BMP_temperature;BMP_pressure;BME280_temperature;BME280_humidity;BME280_pressure;Samples;Min_cycle;Max_cycle;Signal;HPM_P1;HPM_P2
2022/02/27 00:00:31;;;;;;;;;;;3.10;99.10;;;;;;4915062;29;19918;-89
2022/02/27 00:06:34;;;;;;;;;;;2.90;99.20;;;;;;4890720;29;19930;-92
2022/02/27 00:09:30;;;;;;;;;;;3.00;99.20;;;;;;4906115;29;20363;-90
2022/02/27 00:12:36;;;;;;;;;;;2.90;99.20;;;;;;4922620;29;20375;-89
2022/02/27 00:15:20;;;;;;;;;;;2.90;99.30;;;;;;4921737;29;19915;-89
2022/02/27 00:18:07;;;;;;;;;;;2.90;99.30;;;;;;4922818;29;19911;-88
2022/02/27 00:20:55;;;;;;;;;;;;;;;;;;;;;
2022/02/27 00:23:51;;;;;;;;;;;2.80;99.30;;;;;;4924896;29;19915;-89
2022/02/27 00:26:23;;;;;;;;;;;2.70;99.30;;;;;;4922499;29;20367;-89
2022/02/27 00:29:15;;;;;;;;;;;2.70;99.40;;;;;;4923354;29;20005;-90
2022/02/27 00:31:56;;;;;;;;;;;;;;;;;;;;;
2022/02/27 00:34:25;;;;;;;;;;;2.80;99.40;;;;;;4925536;29;19927;-89
2022/02/27 00:43:32;;;;;;;;;;;;;;;;;;;;;
2022/02/27 00:46:11;;;;;;;;;;;;;;;;;;;;;
2022/02/27 00:52:22;;;;;;;;;;;2.60;99.30;;;;;;4932253;29;19936;-90
2022/02/27 00:55:24;;;;;;;;;;;;;;;;;;;;;
2022/02/27 00:58:04;;;;;;;;;;;2.60;99.50;;;;;;4912128;29;19939;-90
2022/02/27 01:03:28;;;;;;;;;;;2.60;99.40;;;;;;4905596;29;19915;-88
2022/02/27 01:09:45;;;;;;;;;;;;;;;;;;;;;
2022/02/27 01:15:25;;;;;;;;;;;;;;;;;;;;;
2022/02/27 01:18:30;;;;;;;;;;;2.50;99.40;;;;;;4915852;29;19917;-90
2022/02/27 01:22:01;;;;;;;;;;;2.50;99.40;;;;;;4899690;29;19911;-89
2022/02/27 01:24:23;;;;;;;;;;;;;;;;;;;;;
2022/02/27 01:27:33;;;;;;;;;;;2.50;99.40;;;;;;4903868;29;19927;-89
2022/02/27 01:33:22;;;;;;;;;;;;;;;;;;;;;
2022/02/27 01:36:18;;;;;;;;;;;;;;;;;;;;;
2022/02/27 01:39:20;;;;;;;;;;;;;;;;;;;;;
2022/02/27 01:42:18;;;;;;;;;;;2.50;99.30;;;;;;4920543;29;19911;-89
2022/02/27 01:45:09;;;;;;;;;;;2.50;99.30;;;;;;4899620;29;20347;-89
2022/02/27 01:53:54;;;;;;;;;;;;;;;;;;;;;
2022/02/27 01:56:40;;;;;;;;;;;2.50;99.30;;;;;;4929415;29;19917;-89
2022/02/27 01:59:11;;;;;;;;;;;2.60;99.30;;;;;;4923244;29;19997;-88
2022/02/27 02:02:07;;;;;;;;;;;;;;;;;;;;;
2022/02/27 02:04:50;;;;;;;;;;;2.60;99.20;;;;;;4942191;29;19921;-89
2022/02/27 02:07:47;;;;;;;;;;;2.60;99.20;;;;;;4912230;29;19923;-91
2022/02/27 02:16:57;;;;;;;;;;;2.60;99.20;;;;;;4929802;29;19899;-90
2022/02/27 02:19:55;;;;;;;;;;;;;;;;;;;;;
2022/02/27 02:22:30;;;;;;;;;;;2.60;99.20;;;;;;4940393;29;19917;-89
2022/02/27 02:25:05;;;;;;;;;;;2.50;99.10;;;;;;4923188;29;19977;-87
2022/02/27 02:27:35;;;;;;;;;;;2.50;99.10;;;;;;4923898;29;19979;-86
2022/02/27 02:30:15;;;;;;;;;;;2.50;99.10;;;;;;4927816;29;19911;-86
2022/02/27 02:35:58;;;;;;;;;;;;;;;;;;;;;
2022/02/27 02:38:53;;;;;;;;;;;2.60;99.00;;;;;;4928762;29;20375;-90
2022/02/27 02:41:56;;;;;;;;;;;2.50;98.90;;;;;;4920048;29;20371;-88
2022/02/27 02:44:40;;;;;;;;;;;2.50;99.20;;;;;;4903085;29;20019;-89
2022/02/27 02:47:32;;;;;;;;;;;2.50;99.00;;;;;;4904402;29;19923;-88
2022/02/27 02:50:38;;;;;;;;;;;2.50;98.90;;;;;;4937680;29;20350;-88
2022/02/27 02:55:52;;;;;;;;;;;2.50;99.00;;;;;;4940898;29;19910;-90
2022/02/27 02:58:50;;;;;;;;;;;;;;;;;;;;;
2022/02/27 03:01:30;;;;;;;;;;;2.40;99.00;;;;;;4936316;29;19915;-89
2022/02/27 03:04:07;;;;;;;;;;;2.40;99.00;;;;;;4940108;29;19915;-90
2022/02/27 03:09:36;;;;;;;;;;;;;;;;;;;;;
2022/02/27 03:12:07;;;;;;;;;;;2.40;99.00;;;;;;4906350;29;19919;-88
2022/02/27 03:14:53;;;;;;;;;;;;;;;;;;;;;
2022/02/27 03:18:18;;;;;;;;;;;;;;;;;;;;;
2022/02/27 03:20:59;;;;;;;;;;;2.40;99.00;;;;;;4921303;29;20009;-89
2022/02/27 03:23:44;;;;;;;;;;;;;;;;;;;;;
2022/02/27 03:26:43;;;;;;;;;;;2.40;99.00;;;;;;4941441;29;20286;-89
2022/02/27 03:29:29;;;;;;;;;;;2.30;99.00;;;;;;4923238;29;20294;-91
2022/02/27 03:32:20;;;;;;;;;;;2.30;99.10;;;;;;4901181;29;19940;-89
2022/02/27 03:34:58;;;;;;;;;;;2.30;99.10;;;;;;4923127;29;19962;-89
2022/02/27 03:37:50;;;;;;;;;;;;;;;;;;;;;
2022/02/27 03:46:06;;;;;;;;;;;2.20;99.40;;;;;;4915845;29;20345;-90
2022/02/27 03:51:48;;;;;;;;;;;;;;;;;;;;;
2022/02/27 03:54:32;;;;;;;;;;;2.20;99.40;;;;;;4939581;29;20282;-88
2022/02/27 03:57:24;;;;;;;;;;;2.20;99.50;;;;;;4908404;29;19982;-88
2022/02/27 04:00:02;;;;;;;;;;;;;;;;;;;;;
2022/02/27 04:02:47;;;;;;;;;;;;;;;;;;;;;
2022/02/27 04:05:45;;;;;;;;;;;2.20;99.40;;;;;;4923865;29;19919;-88
2022/02/27 04:08:19;;;;;;;;;;;2.20;99.40;;;;;;4922390;29;19915;-89
2022/02/27 04:10:52;;;;;;;;;;;2.20;99.40;;;;;;4922598;29;19911;-88
2022/02/27 04:13:58;;;;;;;;;;;2.20;99.40;;;;;;4905263;29;19921;-89
2022/02/27 04:16:47;;;;;;;;;;;2.20;99.40;;;;;;4922976;29;20252;-89
2022/02/27 04:19:43;;;;;;;;;;;;;;;;;;;;;
2022/02/27 04:22:27;;;;;;;;;;;2.20;99.30;;;;;;4932507;29;20286;-89
2022/02/27 04:24:55;;;;;;;;;;;2.20;99.40;;;;;;4890257;29;19923;-89
2022/02/27 04:27:40;;;;;;;;;;;2.20;99.40;;;;;;4903234;29;19962;-88
2022/02/27 04:30:22;;;;;;;;;;;;;;;;;;;;;
2022/02/27 04:33:16;;;;;;;;;;;;;;;;;;;;;
2022/02/27 04:36:04;;;;;;;;;;;2.10;99.40;;;;;;4918412;29;19919;-89
2022/02/27 04:38:38;;;;;;;;;;;2.20;99.40;;;;;;4902876;29;19915;-90
2022/02/27 04:41:33;;;;;;;;;;;2.20;99.40;;;;;;4903467;29;19911;-89
2022/02/27 04:44:17;;;;;;;;;;;2.20;99.40;;;;;;4918899;29;19959;-90
2022/02/27 04:49:42;;;;;;;;;;;2.20;99.40;;;;;;4908974;29;20022;-89
2022/02/27 04:52:25;;;;;;;;;;;;;;;;;;;;;
2022/02/27 04:55:26;;;;;;;;;;;2.20;99.40;;;;;;4948244;28;19966;-90
2022/02/27 04:58:08;;;;;;;;;;;2.10;99.30;;;;;;4912553;29;19919;-86
2022/02/27 05:01:05;;;;;;;;;;;2.20;99.40;;;;;;4925617;29;19915;-88
2022/02/27 05:03:41;;;;;;;;;;;2.10;99.30;;;;;;4869372;29;19969;-89
2022/02/27 05:06:17;;;;;;;;;;;2.10;99.30;;;;;;4918752;29;19997;-88
2022/02/27 05:09:01;;;;;;;;;;;2.10;99.40;;;;;;4921768;29;19918;-91
2022/02/27 05:12:07;;;;;;;;;;;2.10;99.30;;;;;;4921558;29;19918;-90
2022/02/27 05:14:43;;;;;;;;;;;;;;;;;;;;;
2022/02/27 05:20:09;;;;;;;;;;;2.00;99.50;;;;;;4927193;29;19918;-85
2022/02/27 05:22:43;;;;;;;;;;;1.90;99.40;;;;;;4895869;29;19982;-87
2022/02/27 05:25:17;;;;;;;;;;;1.90;99.50;;;;;;4921892;29;19911;-87
2022/02/27 05:28:11;;;;;;;;;;;1.90;99.50;;;;;;4935631;29;19927;-85
2022/02/27 05:31:06;;;;;;;;;;;1.90;99.50;;;;;;4942936;29;19922;-87
2022/02/27 05:36:48;;;;;;;;;;;1.90;99.50;;;;;;4911395;29;20291;-89
2022/02/27 05:39:17;;;;;;;;;;;1.90;99.50;;;;;;4924786;29;19910;-89
2022/02/27 05:41:54;;;;;;;;;;;1.80;99.50;;;;;;4909352;29;19919;-88
2022/02/27 05:44:33;;;;;;;;;;;1.80;99.50;;;;;;4910008;29;19915;-88
2022/02/27 05:50:35;;;;;;;;;;;1.80;99.60;;;;;;4920303;29;20068;-90
2022/02/27 05:53:28;;;;;;;;;;;1.80;99.60;;;;;;4941509;29;19915;-88
2022/02/27 05:56:14;;;;;;;;;;;1.70;99.60;;;;;;4926923;29;19915;-89
2022/02/27 05:58:55;;;;;;;;;;;;;;;;;;;;;
2022/02/27 06:04:38;;;;;;;;;;;;;;;;;;;;;
2022/02/27 06:07:06;;;;;;;;;;;1.70;99.50;;;;;;4945905;29;20001;-88
2022/02/27 06:09:39;;;;;;;;;;;1.70;99.60;;;;;;4904595;29;19915;-87
2022/02/27 06:12:31;;;;;;;;;;;1.70;99.60;;;;;;4909755;29;19934;-89
2022/02/27 06:15:04;;;;;;;;;;;1.70;99.60;;;;;;4949982;29;19903;-90
2022/02/27 06:17:59;;;;;;;;;;;;;;;;;;;;;
2022/02/27 06:20:56;;;;;;;;;;;;;;;;;;;;;
2022/02/27 06:23:55;;;;;;;;;;;;;;;;;;;;;
2022/02/27 06:26:52;;;;;;;;;;;1.60;99.70;;;;;;4941499;29;19926;-88
2022/02/27 06:32:33;;;;;;;;;;;;;;;;;;;;;
2022/02/27 06:41:32;;;;;;;;;;;;;;;;;;;;;
2022/02/27 06:44:15;;;;;;;;;;;1.50;99.80;;;;;;4918601;29;19910;-88
2022/02/27 06:47:01;;;;;;;;;;;1.50;99.80;;;;;;4923590;29;19966;-89
2022/02/27 06:50:00;;;;;;;;;;;1.60;99.80;;;;;;4923954;29;19962;-87
2022/02/27 06:52:58;;;;;;;;;;;1.50;99.80;;;;;;4909433;29;20351;-90
2022/02/27 06:55:39;;;;;;;;;;;;;;;;;;;;;
2022/02/27 06:58:16;;;;;;;;;;;1.60;99.90;;;;;;4921678;29;19911;-88
2022/02/27 07:03:31;;;;;;;;;;;1.60;99.80;;;;;;4893179;29;19916;-90
2022/02/27 07:05:59;;;;;;;;;;;1.60;99.90;;;;;;4904877;29;19944;-88
2022/02/27 07:08:54;;;;;;;;;;;1.60;99.90;;;;;;4904997;29;19961;-89
2022/02/27 07:11:31;;;;;;;;;;;1.70;99.90;;;;;;4904883;29;19911;-89
2022/02/27 07:16:53;;;;;;;;;;;;;;;;;;;;;
2022/02/27 07:19:29;;;;;;;;;;;;;;;;;;;;;
2022/02/27 07:22:59;;;;;;;;;;;1.80;99.80;;;;;;4922110;29;19911;-89
2022/02/27 07:25:29;;;;;;;;;;;;;;;;;;;;;
2022/02/27 07:28:22;;;;;;;;;;;1.90;99.80;;;;;;4902448;29;19931;-89
2022/02/27 07:31:30;;;;;;;;;;;2.00;99.80;;;;;;4883867;29;20397;-90
2022/02/27 07:34:12;;;;;;;;;;;2.00;99.80;;;;;;4909765;29;19927;-89
2022/02/27 07:36:56;;;;;;;;;;;2.00;99.70;;;;;;4899826;29;19906;-89
2022/02/27 07:39:38;;;;;;;;;;;;;;;;;;;;;
2022/02/27 07:42:26;;;;;;;;;;;2.20;99.70;;;;;;4942924;29;19943;-89
2022/02/27 07:48:29;;;;;;;;;;;2.30;99.60;;;;;;4940243;29;19923;-90
2022/02/27 07:51:16;;;;;;;;;;;;;;;;;;;;;
2022/02/27 08:06:35;;;;;;;;;;;;;;;;;;;;;
2022/02/27 08:12:00;;;;;;;;;;;2.80;99.10;;;;;;4862537;29;20441;-89
2022/02/27 08:20:44;;;;;;;;;;;2.90;99.00;;;;;;4864994;29;20023;-91
2022/02/27 08:23:18;;;;;;;;;;;3.00;99.00;;;;;;4851158;29;19969;-87
2022/02/27 08:25:46;;;;;;;;;;;3.10;99.20;;;;;;4846350;29;19943;-87
2022/02/27 08:28:18;;;;;;;;;;;3.10;98.80;;;;;;4860786;29;19924;-86
2022/02/27 08:30:52;;;;;;;;;;;3.20;98.70;;;;;;4889314;29;19936;-87
2022/02/27 08:33:21;;;;;;;;;;;3.20;98.70;;;;;;4902856;29;19961;-87
2022/02/27 08:39:15;;;;;;;;;;;3.40;98.60;;;;;;4864145;29;19955;-87
2022/02/27 08:47:36;;;;;;;;;;;3.60;98.40;;;;;;4878936;29;19927;-88
2022/02/27 08:50:11;;;;;;;;;;;3.60;98.30;;;;;;4902655;29;19915;-89
2022/02/27 08:53:02;;;;;;;;;;;3.70;98.20;;;;;;4902052;29;19977;-86
2022/02/27 08:55:44;;;;;;;;;;;3.70;97.90;;;;;;4897154;29;19955;-87
2022/02/27 08:58:17;;;;;;;;;;;3.80;97.80;;;;;;4890980;29;19915;-87
2022/02/27 09:00:48;;;;;;;;;;;3.90;97.80;;;;;;4925187;29;19911;-86
2022/02/27 09:03:24;;;;;;;;;;;4.00;97.70;;;;;;4910472;29;19916;-89
2022/02/27 09:05:57;;;;;;;;;;;4.00;98.00;;;;;;4923909;29;19908;-87
2022/02/27 09:08:29;;;;;;;;;;;4.10;97.80;;;;;;4905871;29;19940;-87
2022/02/27 09:13:51;;;;;;;;;;;4.20;97.70;;;;;;4905497;29;20403;-87
2022/02/27 09:17:05;;;;;;;;;;;;;;;;;;;;;
2022/02/27 09:19:51;;;;;;;;;;;4.40;97.30;;;;;;4915758;29;20291;-87
2022/02/27 09:22:32;;;;;;;;;;;4.50;97.30;;;;;;4902324;29;19911;-86
2022/02/27 09:28:09;;;;;;;;;;;4.60;96.90;;;;;;4909273;29;19927;-87
2022/02/27 09:30:56;;;;;;;;;;;4.70;96.50;;;;;;4906259;29;19970;-88
2022/02/27 09:33:46;;;;;;;;;;;4.70;96.40;;;;;;4935934;29;20287;-87
2022/02/27 09:36:28;;;;;;;;;;;4.80;96.10;;;;;;4920711;29;20537;-87
2022/02/27 09:39:07;;;;;;;;;;;4.90;95.70;;;;;;4906470;29;19922;-88
2022/02/27 09:42:08;;;;;;;;;;;5.00;95.50;;;;;;4911341;29;19947;-88
2022/02/27 09:44:48;;;;;;;;;;;;;;;;;;;;;
2022/02/27 09:47:15;;;;;;;;;;;5.10;95.10;;;;;;4900233;29;20279;-88
2022/02/27 09:49:53;;;;;;;;;;;5.20;95.20;;;;;;4884659;29;19969;-87
2022/02/27 09:52:24;;;;;;;;;;;5.20;95.10;;;;;;4894859;29;19982;-88
2022/02/27 09:55:14;;;;;;;;;;;5.30;95.20;;;;;;4887243;29;19958;-87
2022/02/27 09:57:46;;;;;;;;;;;5.40;94.90;;;;;;4918777;29;20002;-86
2022/02/27 10:03:43;;;;;;;;;;;5.50;94.20;;;;;;4914935;29;20419;-86
2022/02/27 10:06:31;;;;;;;;;;;;;;;;;;;;;
2022/02/27 10:11:57;;;;;;;;;;;;;;;;;;;;;
2022/02/27 10:14:55;;;;;;;;;;;5.80;93.90;;;;;;4937307;29;19921;-88
2022/02/27 10:17:59;;;;;;;;;;;;;;;;;;;;;
2022/02/27 10:20:48;;;;;;;;;;;;;;;;;;;;;
2022/02/27 10:26:48;;;;;;;;;;;6.00;93.10;;;;;;4933360;29;19911;-93
2022/02/27 10:32:31;;;;;;;;;;;;;;;;;;;;;
2022/02/27 10:38:19;;;;;;;;;;;6.20;92.70;;;;;;4979253;28;19917;-88
2022/02/27 10:41:01;;;;;;;;;;;;;;;;;;;;;
2022/02/27 10:43:49;;;;;;;;;;;6.20;92.60;;;;;;4964525;28;20377;-89
2022/02/27 10:46:38;;;;;;;;;;;6.30;92.80;;;;;;4959285;28;20319;-87
2022/02/27 10:49:06;;;;;;;;;;;6.30;92.80;;;;;;4939707;29;19914;-87
2022/02/27 10:52:02;;;;;;;;;;;6.40;92.50;;;;;;4927340;29;19950;-88
2022/02/27 11:01:28;;;;;;;;;;;;;;;;;;;;;
2022/02/27 11:07:08;;;;;;;;;;;;;;;;;;;;;
2022/02/27 11:12:53;;;;;;;;;;;6.90;92.00;;;;;;4908809;29;19895;-87
2022/02/27 11:15:42;;;;;;;;;;;;;;;;;;;;;
2022/02/27 11:18:37;;;;;;;;;;;6.90;92.00;;;;;;4932428;29;19970;-88
2022/02/27 11:21:36;;;;;;;;;;;7.00;91.70;;;;;;4923724;29;19915;-85
2022/02/27 11:24:32;;;;;;;;;;;;;;;;;;;;;
2022/02/27 11:27:37;;;;;;;;;;;;;;;;;;;;;
2022/02/27 11:30:28;;;;;;;;;;;7.10;91.20;;;;;;4978998;28;20410;-88
2022/02/27 11:36:29;;;;;;;;;;;7.20;91.50;;;;;;4913483;29;19911;-88
2022/02/27 11:39:15;;;;;;;;;;;;;;;;;;;;;
2022/02/27 11:42:06;;;;;;;;;;;7.30;91.30;;;;;;4979217;28;19917;-88
2022/02/27 11:44:51;;;;;;;;;;;;;;;;;;;;;
2022/02/27 11:47:46;;;;;;;;;;;7.40;91.50;;;;;;4963285;28;19918;-90
2022/02/27 11:51:09;;;;;;;;;;;7.50;91.50;;;;;;4962280;28;19914;-89
2022/02/27 11:53:56;;;;;;;;;;;;;;;;;;;;;
2022/02/27 11:56:42;;;;;;;;;;;7.60;91.10;;;;;;5001342;28;19902;-93
2022/02/27 11:59:33;;;;;;;;;;;7.70;91.20;;;;;;4977548;28;20056;-90
2022/02/27 12:02:35;;;;;;;;;;;;;;;;;;;;;
2022/02/27 12:08:45;;;;;;;;;;;;;;;;;;;;;
2022/02/27 12:17:55;;;;;;;;;;;8.00;90.20;;;;;;4941669;28;20005;-87
2022/02/27 12:26:42;;;;;;;;;;;;;;;;;;;;;
2022/02/27 12:29:35;;;;;;;;;;;8.20;88.40;;;;;;4958838;29;20020;-89
2022/02/27 12:32:14;;;;;;;;;;;8.20;88.50;;;;;;4933535;28;19925;-89
2022/02/27 12:34:53;;;;;;;;;;;8.30;88.30;;;;;;4960821;28;19911;-88
2022/02/27 12:37:22;;;;;;;;;;;8.30;88.00;;;;;;4960923;28;19960;-89
2022/02/27 12:39:55;;;;;;;;;;;8.40;88.20;;;;;;4960471;28;19956;-89
2022/02/27 12:42:53;;;;;;;;;;;;;;;;;;;;;
2022/02/27 12:45:42;;;;;;;;;;;8.50;88.00;;;;;;4978652;28;19910;-88
2022/02/27 12:54:31;;;;;;;;;;;8.60;88.00;;;;;;4977900;28;20409;-88
2022/02/27 12:57:22;;;;;;;;;;;8.60;87.90;;;;;;4960981;28;20378;-88
2022/02/27 13:02:55;;;;;;;;;;;;;;;;;;;;;
2022/02/27 13:09:10;;;;;;;;;;;8.80;86.60;;;;;;4971604;28;19918;-90
2022/02/27 13:12:16;;;;;;;;;;;;;;;;;;;;;
2022/02/27 13:15:01;;;;;;;;;;;;;;;;;;;;;
2022/02/27 13:20:53;;;;;;;;;;;8.90;84.30;;;;;;4978543;28;19917;-91
2022/02/27 13:23:51;;;;;;;;;;;;;;;;;;;;;
2022/02/27 13:26:29;;;;;;;;;;;;;;;;;;;;;
2022/02/27 13:29:14;;;;;;;;;;;9.00;82.20;;;;;;4985659;28;19973;-90
2022/02/27 13:31:42;;;;;;;;;;;9.00;82.10;;;;;;4982862;28;20007;-89
2022/02/27 13:34:46;;;;;;;;;;;9.00;80.90;;;;;;4972125;28;19949;-88
2022/02/27 13:37:30;;;;;;;;;;;;;;;;;;;;;
2022/02/27 13:40:35;;;;;;;;;;;;;;;;;;;;;
2022/02/27 13:46:03;;;;;;;;;;;;;;;;;;;;;
2022/02/27 13:48:51;;;;;;;;;;;9.20;79.50;;;;;;4978190;28;20021;-89
2022/02/27 13:55:47;;;;;;;;;;;;;;;;;;;;;
2022/02/27 13:58:12;;;;;;;;;;;;;;;;;;;;;
2022/02/27 14:04:24;;;;;;;;;;;9.30;77.80;;;;;;4923455;29;19918;-91
2022/02/27 14:10:09;;;;;;;;;;;;;;;;;;;;;
2022/02/27 14:13:04;;;;;;;;;;;;;;;;;;;;;
2022/02/27 14:16:00;;;;;;;;;;;;;;;;;;;;;
2022/02/27 14:27:47;;;;;;;;;;;;;;;;;;;;;
2022/02/27 14:30:36;;;;;;;;;;;9.40;76.20;;;;;;4965590;29;19925;-89
2022/02/27 14:33:35;;;;;;;;;;;;;;;;;;;;;
2022/02/27 14:36:18;;;;;;;;;;;;;;;;;;;;;
2022/02/27 14:39:07;;;;;;;;;;;9.50;76.50;;;;;;4950218;29;20005;-89
2022/02/27 14:41:42;;;;;;;;;;;;;;;;;;;;;
2022/02/27 14:44:18;;;;;;;;;;;9.50;76.40;;;;;;4990161;28;20002;-90
2022/02/27 14:46:55;;;;;;;;;;;9.50;76.50;;;;;;4969217;28;19914;-92
2022/02/27 14:52:53;;;;;;;;;;;9.50;75.10;;;;;;4967908;28;20001;-88
2022/02/27 14:56:05;;;;;;;;;;;9.50;73.80;;;;;;4979310;28;19914;-89
2022/02/27 14:58:44;;;;;;;;;;;;;;;;;;;;;
2022/02/27 15:01:15;;;;;;;;;;;9.60;72.80;;;;;;5001738;28;19902;-88
2022/02/27 15:04:19;;;;;;;;;;;;;;;;;;;;;
2022/02/27 15:06:55;;;;;;;;;;;9.70;71.70;;;;;;4995388;28;19965;-89
2022/02/27 15:09:38;;;;;;;;;;;9.70;72.40;;;;;;4965055;28;19941;-88
2022/02/27 15:12:31;;;;;;;;;;;9.70;73.00;;;;;;4947745;28;19965;-88
2022/02/27 15:15:16;;;;;;;;;;;9.70;72.50;;;;;;4959098;28;19918;-89
2022/02/27 15:18:13;;;;;;;;;;;9.70;71.70;;;;;;4947400;28;19973;-89
2022/02/27 15:21:13;;;;;;;;;;;;;;;;;;;;;
2022/02/27 15:24:15;;;;;;;;;;;;;;;;;;;;;
2022/02/27 15:26:59;;;;;;;;;;;10.30;72.80;;;;;;4980570;28;19914;-89
2022/02/27 15:32:28;;;;;;;;;;;;;;;;;;;;;
2022/02/27 15:35:04;;;;;;;;;;;10.60;71.90;;;;;;4979476;28;19910;-88
2022/02/27 15:38:03;;;;;;;;;;;;;;;;;;;;;
2022/02/27 15:40:34;;;;;;;;;;;10.50;71.30;;;;;;4979524;28;19920;-89
2022/02/27 15:43:24;;;;;;;;;;;;;;;;;;;;;
2022/02/27 15:46:14;;;;;;;;;;;10.40;71.40;;;;;;4978910;28;19914;-88
2022/02/27 15:49:04;;;;;;;;;;;10.30;71.80;;;;;;4978093;28;19973;-88
2022/02/27 15:51:43;;;;;;;;;;;10.20;70.50;;;;;;4962355;28;19998;-88
2022/02/27 15:54:14;;;;;;;;;;;10.10;70.50;;;;;;4946807;28;19941;-87
2022/02/27 15:56:51;;;;;;;;;;;10.00;70.30;;;;;;4962328;28;19914;-88
2022/02/27 15:59:21;;;;;;;;;;;9.90;70.60;;;;;;4961978;28;19953;-88
2022/02/27 16:02:16;;;;;;;;;;;;;;;;;;;;;
2022/02/27 16:05:05;;;;;;;;;;;9.80;70.40;;;;;;4978883;28;19910;-88
2022/02/27 16:07:41;;;;;;;;;;;9.70;71.10;;;;;;4961338;28;19918;-88
2022/02/27 16:10:20;;;;;;;;;;;9.60;71.30;;;;;;4962049;28;19914;-88
2022/02/27 16:13:01;;;;;;;;;;;;;;;;;;;;;
2022/02/27 16:15:55;;;;;;;;;;;;;;;;;;;;;
2022/02/27 16:18:46;;;;;;;;;;;;;;;;;;;;;
2022/02/27 16:21:44;;;;;;;;;;;;;;;;;;;;;
2022/02/27 16:27:34;;;;;;;;;;;;;;;;;;;;;
2022/02/27 16:33:13;;;;;;;;;;;9.20;73.20;;;;;;4984461;28;19930;-92
2022/02/27 16:39:02;;;;;;;;;;;9.00;74.00;;;;;;5000215;28;19898;-94
2022/02/27 16:41:36;;;;;;;;;;;9.00;74.30;;;;;;4977082;28;19922;-88
2022/02/27 16:44:17;;;;;;;;;;;;;;;;;;;;;
2022/02/27 16:46:56;;;;;;;;;;;;;;;;;;;;;
2022/02/27 16:49:40;;;;;;;;;;;;;;;;;;;;;
2022/02/27 16:52:30;;;;;;;;;;;8.70;74.90;;;;;;4977319;28;19917;-89
2022/02/27 16:55:12;;;;;;;;;;;8.70;74.90;;;;;;4977221;28;20389;-89
2022/02/27 16:57:46;;;;;;;;;;;8.60;75.00;;;;;;4960228;28;19914;-88
2022/02/27 17:03:47;;;;;;;;;;;;;;;;;;;;;
2022/02/27 17:09:22;;;;;;;;;;;;;;;;;;;;;
2022/02/27 17:12:24;;;;;;;;;;;8.30;75.60;;;;;;4974550;28;19918;-88
2022/02/27 17:14:50;;;;;;;;;;;8.20;75.80;;;;;;4960565;28;20397;-88
2022/02/27 17:20:29;;;;;;;;;;;8.10;76.30;;;;;;4907411;29;20403;-88
2022/02/27 17:23:04;;;;;;;;;;;8.10;76.50;;;;;;4918533;29;19997;-88
2022/02/27 17:25:46;;;;;;;;;;;8.00;76.50;;;;;;4904304;29;20443;-88
2022/02/27 17:28:19;;;;;;;;;;;8.00;77.30;;;;;;4921661;29;19919;-90
2022/02/27 17:31:07;;;;;;;;;;;7.90;76.70;;;;;;4925705;29;19921;-88
2022/02/27 17:33:41;;;;;;;;;;;7.90;76.70;;;;;;4940682;29;20429;-88
2022/02/27 17:36:16;;;;;;;;;;;;;;;;;;;;;
2022/02/27 17:38:50;;;;;;;;;;;7.80;77.00;;;;;;4962148;29;19917;-88
2022/02/27 17:44:14;;;;;;;;;;;7.70;77.30;;;;;;4967093;28;19910;-88
2022/02/27 17:47:00;;;;;;;;;;;7.60;77.50;;;;;;4948219;28;20378;-88
2022/02/27 17:49:44;;;;;;;;;;;;;;;;;;;;;
2022/02/27 17:55:06;;;;;;;;;;;7.50;78.40;;;;;;4977496;28;19910;-90
2022/02/27 17:57:45;;;;;;;;;;;;;;;;;;;;;
2022/02/27 18:00:17;;;;;;;;;;;7.40;78.60;;;;;;4977906;28;19933;-88
2022/02/27 18:08:33;;;;;;;;;;;7.30;79.20;;;;;;4965596;28;19922;-88
2022/02/27 18:14:02;;;;;;;;;;;;;;;;;;;;;
2022/02/27 18:16:53;;;;;;;;;;;;;;;;;;;;;
2022/02/27 18:19:53;;;;;;;;;;;;;;;;;;;;;
2022/02/27 18:25:46;;;;;;;;;;;7.00;79.90;;;;;;4964836;28;20389;-88
2022/02/27 18:31:20;;;;;;;;;;;6.90;80.00;;;;;;4952151;28;19969;-89
2022/02/27 18:33:53;;;;;;;;;;;6.90;80.10;;;;;;4960100;28;19922;-88
2022/02/27 18:36:43;;;;;;;;;;;6.90;80.30;;;;;;4977761;28;19925;-88
2022/02/27 18:39:14;;;;;;;;;;;6.80;80.30;;;;;;4961285;28;19915;-87
2022/02/27 18:42:19;;;;;;;;;;;6.80;80.30;;;;;;4961393;28;19911;-88
2022/02/27 18:45:50;;;;;;;;;;;6.80;80.50;;;;;;4964344;28;19981;-89
2022/02/27 18:48:16;;;;;;;;;;;6.80;80.70;;;;;;4967881;28;19918;-88
2022/02/27 18:51:12;;;;;;;;;;;;;;;;;;;;;
2022/02/27 18:54:03;;;;;;;;;;;6.70;81.00;;;;;;4981632;28;20029;-88
2022/02/27 19:03:06;;;;;;;;;;;;;;;;;;;;;
2022/02/27 19:06:02;;;;;;;;;;;;;;;;;;;;;
2022/02/27 19:08:36;;;;;;;;;;;6.50;81.40;;;;;;4982181;28;20013;-88
2022/02/27 19:11:56;;;;;;;;;;;;;;;;;;;;;
2022/02/27 19:14:38;;;;;;;;;;;6.50;81.50;;;;;;4975804;28;19914;-88
2022/02/27 19:17:24;;;;;;;;;;;;;;;;;;;;;
2022/02/27 19:19:54;;;;;;;;;;;6.40;81.70;;;;;;4980808;28;19911;-89
2022/02/27 19:23:07;;;;;;;;;;;6.40;81.70;;;;;;4969332;28;19934;-89
2022/02/27 19:25:38;;;;;;;;;;;6.40;81.90;;;;;;4983442;28;19917;-87
2022/02/27 19:31:40;;;;;;;;;;;6.30;82.20;;;;;;4920451;29;19923;-89
2022/02/27 19:34:27;;;;;;;;;;;6.30;82.50;;;;;;4969248;28;19990;-88
2022/02/27 19:40:20;;;;;;;;;;;6.20;82.70;;;;;;4985262;28;19929;-87
2022/02/27 19:43:00;;;;;;;;;;;6.10;82.80;;;;;;4965973;28;19921;-87
2022/02/27 19:45:48;;;;;;;;;;;6.10;83.00;;;;;;4965020;28;19965;-87
2022/02/27 19:51:29;;;;;;;;;;;6.10;83.30;;;;;;4968273;28;19916;-86
2022/02/27 19:53:58;;;;;;;;;;;6.00;83.30;;;;;;4963976;28;19964;-88
2022/02/27 19:56:53;;;;;;;;;;;;;;;;;;;;;
2022/02/27 20:02:10;;;;;;;;;;;5.90;83.60;;;;;;4967679;28;20041;-87
2022/02/27 20:07:38;;;;;;;;;;;5.80;83.90;;;;;;4950436;29;20009;-88
2022/02/27 20:13:21;;;;;;;;;;;5.80;84.10;;;;;;4962196;29;20421;-87
2022/02/27 20:15:53;;;;;;;;;;;5.80;83.70;;;;;;4962402;28;19917;-86
2022/02/27 20:18:24;;;;;;;;;;;5.70;83.70;;;;;;4965854;28;20485;-88
2022/02/27 20:21:01;;;;;;;;;;;5.70;83.90;;;;;;4981447;28;19910;-86
2022/02/27 20:23:40;;;;;;;;;;;;;;;;;;;;;
2022/02/27 20:26:11;;;;;;;;;;;5.70;83.90;;;;;;4962254;28;19914;-86
2022/02/27 20:28:50;;;;;;;;;;;;;;;;;;;;;
2022/02/27 20:31:24;;;;;;;;;;;5.70;84.00;;;;;;4977371;28;19916;-87
2022/02/27 20:33:52;;;;;;;;;;;5.70;84.10;;;;;;4977403;28;19948;-87
2022/02/27 20:36:36;;;;;;;;;;;5.70;84.00;;;;;;4959858;28;19972;-90
2022/02/27 20:39:11;;;;;;;;;;;5.60;84.00;;;;;;4962023;28;19914;-85
2022/02/27 20:41:49;;;;;;;;;;;5.60;84.00;;;;;;4980230;28;19977;-83
2022/02/27 20:44:20;;;;;;;;;;;5.60;84.00;;;;;;4963432;28;20358;-84
2022/02/27 20:46:48;;;;;;;;;;;5.50;83.60;;;;;;4961037;28;19917;-87
2022/02/27 20:49:19;;;;;;;;;;;5.50;83.90;;;;;;4961100;28;19922;-87
2022/02/27 20:51:50;;;;;;;;;;;5.50;84.10;;;;;;4945447;28;19918;-87
2022/02/27 20:54:44;;;;;;;;;;;;;;;;;;;;;
2022/02/27 20:57:17;;;;;;;;;;;5.50;84.50;;;;;;4962478;28;20262;-88
2022/02/27 20:59:43;;;;;;;;;;;5.40;84.30;;;;;;4978049;28;19965;-87
2022/02/27 21:02:11;;;;;;;;;;;5.40;84.40;;;;;;4963348;28;20278;-86
2022/02/27 21:04:42;;;;;;;;;;;5.40;84.60;;;;;;4980906;28;19898;-88
2022/02/27 21:07:09;;;;;;;;;;;5.40;84.50;;;;;;4982478;28;19906;-87
2022/02/27 21:09:35;;;;;;;;;;;5.40;84.60;;;;;;4982537;28;19914;-88
2022/02/27 21:12:03;;;;;;;;;;;5.30;84.40;;;;;;4974058;28;19964;-88
2022/02/27 21:14:31;;;;;;;;;;;5.40;84.40;;;;;;4960106;28;19917;-87
2022/02/27 21:16:59;;;;;;;;;;;5.30;84.50;;;;;;4944288;28;19914;-86
2022/02/27 21:19:36;;;;;;;;;;;5.30;84.70;;;;;;4959170;28;19910;-87
2022/02/27 21:22:20;;;;;;;;;;;5.30;84.70;;;;;;4960188;28;20029;-87
2022/02/27 21:24:51;;;;;;;;;;;5.30;84.60;;;;;;4959960;28;20274;-88
2022/02/27 21:27:17;;;;;;;;;;;5.30;84.70;;;;;;4959683;28;19914;-87
2022/02/27 21:29:56;;;;;;;;;;;5.30;84.90;;;;;;4976807;28;20354;-89
2022/02/27 21:32:30;;;;;;;;;;;5.20;85.00;;;;;;4958922;28;19910;-89
2022/02/27 21:35:03;;;;;;;;;;;5.20;85.00;;;;;;4959645;28;19917;-88
2022/02/27 21:37:31;;;;;;;;;;;5.20;85.00;;;;;;4959277;28;20075;-84
2022/02/27 21:39:56;;;;;;;;;;;5.20;85.00;;;;;;4943519;28;20023;-87
2022/02/27 21:42:22;;;;;;;;;;;5.20;85.00;;;;;;4959222;28;19910;-87
2022/02/27 21:44:50;;;;;;;;;;;5.10;85.00;;;;;;4958971;28;20005;-87
2022/02/27 21:47:18;;;;;;;;;;;5.10;85.10;;;;;;4959398;28;19965;-87
2022/02/27 21:50:02;;;;;;;;;;;5.10;85.30;;;;;;4958976;28;19914;-87
2022/02/27 21:52:33;;;;;;;;;;;5.00;85.20;;;;;;4959211;28;20422;-88
2022/02/27 21:55:17;;;;;;;;;;;5.10;85.30;;;;;;4959189;28;20326;-88
2022/02/27 21:57:47;;;;;;;;;;;5.00;85.40;;;;;;4975391;28;19944;-87
2022/02/27 22:00:42;;;;;;;;;;;5.00;85.40;;;;;;4959238;28;19910;-88
2022/02/27 22:03:14;;;;;;;;;;;5.00;85.50;;;;;;4975779;28;19910;-88
2022/02/27 22:05:42;;;;;;;;;;;5.00;85.80;;;;;;4959048;28;19960;-88
2022/02/27 22:08:13;;;;;;;;;;;5.00;85.80;;;;;;4959323;28;19921;-88
2022/02/27 22:10:49;;;;;;;;;;;4.90;85.70;;;;;;4958870;28;19968;-87
2022/02/27 22:16:18;;;;;;;;;;;4.90;85.80;;;;;;4964290;28;19925;-88
2022/02/27 22:18:54;;;;;;;;;;;4.80;85.90;;;;;;4948101;28;19914;-88
2022/02/27 22:21:40;;;;;;;;;;;4.80;85.90;;;;;;4946572;28;19966;-87
2022/02/27 22:24:11;;;;;;;;;;;4.80;86.10;;;;;;4945251;29;19910;-87
2022/02/27 22:26:42;;;;;;;;;;;4.80;86.20;;;;;;4944834;29;19914;-86
2022/02/27 22:29:12;;;;;;;;;;;4.70;86.10;;;;;;4944489;29;19921;-87
2022/02/27 22:31:49;;;;;;;;;;;;;;;;;;;;;
2022/02/27 22:34:25;;;;;;;;;;;;;;;;;;;;;
2022/02/27 22:37:03;;;;;;;;;;;4.60;86.40;;;;;;5001849;28;19938;-88
2022/02/27 22:42:41;;;;;;;;;;;4.50;86.70;;;;;;4969684;28;19914;-86
2022/02/27 22:45:27;;;;;;;;;;;4.50;87.10;;;;;;4962289;28;20379;-88
2022/02/27 22:47:55;;;;;;;;;;;4.40;87.30;;;;;;4961068;28;19918;-88
2022/02/27 22:50:21;;;;;;;;;;;4.30;87.60;;;;;;4962071;28;19922;-87